Time;durP1;ratioP1;P1;durP2;ratioP2;P2;SDS_P1;SDS_P2;PMS_P1;PMS_P2;Temp;Humidity;BMP_temperature;BMP_pressure;BME280_temperature;BME280_humidity;BME280_pressure;Samples;Min_cycle;Max_cycle;Signal;HPM_P1;HPM_P2
2023/05/05 00:01:34;;;;;;;12.20;11.77;;;16.90;99.90;;;;;;5143425;27;20808;-68
2023/05/05 00:04:01;;;;;;;12.73;12.23;;;16.70;99.90;;;;;;5137156;27;20876;-68
2023/05/05 00:06:30;;;;;;;12.57;12.07;;;16.60;99.90;;;;;;5151460;27;20455;-67
2023/05/05 00:08:56;;;;;;;12.03;11.63;;;16.40;99.90;;;;;;5137913;27;20451;-68
2023/05/05 00:11:24;;;;;;;11.80;11.40;;;16.40;99.90;;;;;;5145612;27;21205;-68
2023/05/05 00:13:51;;;;;;;11.50;11.10;;;16.30;99.90;;;;;;5150729;27;20471;-68
2023/05/05 00:16:19;;;;;;;11.60;11.20;;;16.20;99.90;;;;;;5147520;27;20512;-68
2023/05/05 00:18:47;;;;;;;11.63;11.23;;;16.10;99.90;;;;;;5150379;27;20535;-68
2023/05/05 00:21:14;;;;;;;11.90;11.47;;;16.00;99.90;;;;;;5143674;27;20906;-68
2023/05/05 00:23:43;;;;;;;11.63;11.23;;;15.90;99.90;;;;;;5142774;27;20463;-68
2023/05/05 00:26:10;;;;;;;11.77;11.37;;;15.80;99.90;;;;;;5149640;27;20455;-68
2023/05/05 00:28:37;;;;;;;11.30;10.90;;;15.70;99.90;;;;;;5136975;27;20988;-68
2023/05/05 00:31:04;;;;;;;11.00;10.60;;;15.70;99.90;;;;;;5137999;27;20459;-68
2023/05/05 00:33:31;;;;;;;14.90;14.20;;;15.50;99.90;;;;;;5148157;27;20734;-67
2023/05/05 00:35:58;;;;;;;10.73;10.33;;;15.40;99.90;;;;;;5140386;27;20748;-68
2023/05/05 00:38:26;;;;;;;10.73;10.33;;;15.30;99.90;;;;;;5149357;27;20935;-68
2023/05/05 00:40:55;;;;;;;10.47;10.07;;;15.40;99.90;;;;;;5142200;27;20974;-68
2023/05/05 00:43:22;;;;;;;10.20;9.80;;;15.50;99.90;;;;;;5138137;27;20447;-68
2023/05/05 00:45:58;;;;;;;10.00;9.70;;;15.60;99.90;;;;;;5139021;27;20858;-68
2023/05/05 00:48:25;;;;;;;10.33;9.93;;;15.60;99.90;;;;;;5148824;27;20444;-68
2023/05/05 00:50:55;;;;;;;9.77;9.47;;;15.70;99.90;;;;;;5140972;27;20533;-68
2023/05/05 00:53:22;;;;;;;10.43;10.03;;;15.80;99.90;;;;;;5149168;27;20459;-68
2023/05/05 00:55:50;;;;;;;10.13;9.77;;;15.80;99.90;;;;;;5136947;27;20460;-68
2023/05/05 00:58:18;;;;;;;9.97;9.67;;;15.80;99.90;;;;;;5138659;27;20486;-68
2023/05/05 01:00:45;;;;;;;10.30;9.90;;;15.80;99.90;;;;;;5146490;27;20495;-68
2023/05/05 01:03:14;;;;;;;9.73;9.43;;;15.90;99.90;;;;;;5138989;27;20461;-68
2023/05/05 01:05:51;;;;;;;9.67;9.37;;;15.90;99.90;;;;;;5145367;27;20500;-68
2023/05/05 01:08:29;;;;;;;9.83;9.53;;;15.90;99.90;;;;;;5142024;27;20483;-69
2023/05/05 01:11:01;;;;;;;10.67;10.27;;;15.80;99.90;;;;;;5142797;27;20455;-68
2023/05/05 01:13:42;;;;;;;10.00;9.70;;;15.80;99.90;;;;;;5138212;27;20483;-68
2023/05/05 01:16:14;;;;;;;9.97;9.67;;;15.80;99.90;;;;;;5145921;27;20541;-68
2023/05/05 01:18:50;;;;;;;9.80;9.50;;;15.80;99.90;;;;;;5139363;27;20490;-68
2023/05/05 01:21:25;;;;;;;9.63;9.33;;;15.80;99.90;;;;;;5136418;27;20482;-68
2023/05/05 01:24:17;;;;;;;10.53;10.00;;;15.70;99.90;;;;;;5148666;27;20869;-68
2023/05/05 01:26:57;;;;;;;10.60;10.20;;;15.60;99.90;;;;;;5142595;27;20882;-69
2023/05/05 01:29:48;;;;;;;9.60;9.30;;;15.40;99.90;;;;;;5134269;27;20466;-68
2023/05/05 01:32:19;;;;;;;8.80;8.50;;;15.40;99.90;;;;;;5136408;27;20459;-69
2023/05/05 01:34:53;;;;;;;8.83;8.53;;;15.30;99.90;;;;;;5144769;27;20489;-68
2023/05/05 01:37:24;;;;;;;9.90;9.53;;;15.10;99.90;;;;;;5143105;27;20466;-68
2023/05/05 01:39:55;;;;;;;8.80;8.50;;;14.80;99.90;;;;;;5137313;27;20860;-69
2023/05/05 01:42:23;;;;;;;9.43;9.13;;;14.50;99.90;;;;;;5141843;27;20546;-68
2023/05/05 01:44:52;;;;;;;9.37;9.07;;;14.30;99.90;;;;;;5143702;27;20878;-69
2023/05/05 01:47:23;;;;;;;8.73;8.43;;;14.20;99.90;;;;;;5143622;27;20533;-69
2023/05/05 01:49:51;;;;;;;8.20;7.90;;;14.20;99.90;;;;;;5145072;27;20540;-69
2023/05/05 01:52:19;;;;;;;7.50;7.30;;;14.20;99.90;;;;;;5140430;27;20448;-68
2023/05/05 01:54:47;;;;;;;7.00;6.80;;;14.10;99.90;;;;;;5143035;27;20460;-68
2023/05/05 01:57:16;;;;;;;6.87;6.67;;;14.20;99.90;;;;;;5133157;27;20525;-69
2023/05/05 01:59:43;;;;;;;6.27;6.07;;;14.20;99.90;;;;;;5147466;27;20464;-68
2023/05/05 02:02:12;;;;;;;6.43;6.23;;;14.10;99.90;;;;;;5135526;27;20460;-68
2023/05/05 02:04:43;;;;;;;6.33;6.13;;;14.00;99.90;;;;;;5147532;27;20463;-68
2023/05/05 02:07:13;;;;;;;6.23;6.03;;;13.90;99.90;;;;;;5141529;27;20467;-68
2023/05/05 02:09:42;;;;;;;6.50;6.30;;;13.80;99.90;;;;;;5148559;27;20504;-68
2023/05/05 02:12:10;;;;;;;5.60;5.50;;;13.70;99.90;;;;;;5143893;27;20463;-68
2023/05/05 02:14:39;;;;;;;5.70;5.50;;;13.80;99.90;;;;;;5134463;27;20479;-68
2023/05/05 02:17:06;;;;;;;5.90;5.70;;;13.90;99.90;;;;;;5144562;27;20490;-68
2023/05/05 02:19:38;;;;;;;6.00;5.80;;;13.80;99.90;;;;;;5149229;27;20539;-68
2023/05/05 02:22:07;;;;;;;5.07;4.97;;;13.80;99.90;;;;;;5144207;27;20508;-68
2023/05/05 02:24:34;;;;;;;4.73;4.63;;;13.90;99.90;;;;;;5149471;27;20463;-68
2023/05/05 02:27:04;;;;;;;5.03;4.93;;;13.90;99.90;;;;;;5143301;27;20463;-68
2023/05/05 02:29:34;;;;;;;5.00;4.90;;;14.00;99.90;;;;;;5144890;27;20845;-68
2023/05/05 02:32:04;;;;;;;5.10;5.00;;;14.00;99.90;;;;;;5141329;27;20548;-69
2023/05/05 02:34:36;;;;;;;5.00;4.90;;;14.00;99.90;;;;;;5137500;27;20451;-69
2023/05/05 02:37:10;;;;;;;5.00;4.90;;;13.90;99.90;;;;;;5142151;27;20542;-68
2023/05/05 02:39:43;;;;;;;6.10;5.93;;;13.90;99.90;;;;;;5138304;27;20463;-68
2023/05/05 02:42:15;;;;;;;5.10;5.00;;;13.90;99.90;;;;;;5135837;27;20567;-68
2023/05/05 02:44:45;;;;;;;5.20;5.10;;;13.90;99.90;;;;;;5140363;27;20558;-68
2023/05/05 02:47:11;;;;;;;5.27;5.17;;;13.80;99.90;;;;;;5149193;27;20992;-68
2023/05/05 02:49:39;;;;;;;5.40;5.30;;;13.70;99.90;;;;;;5145336;27;20479;-69
2023/05/05 02:52:06;;;;;;;5.27;5.17;;;13.70;99.90;;;;;;5141537;27;20470;-68
2023/05/05 02:54:36;;;;;;;5.10;5.00;;;13.70;99.90;;;;;;5139798;27;20467;-68
2023/05/05 02:57:03;;;;;;;4.83;4.73;;;13.80;99.90;;;;;;5142095;27;20508;-68
2023/05/05 02:59:38;;;;;;;4.90;4.80;;;13.80;99.90;;;;;;5142213;27;20455;-68
2023/05/05 03:02:17;;;;;;;4.83;4.73;;;13.80;99.90;;;;;;5151905;27;20450;-68
2023/05/05 03:04:49;;;;;;;4.90;4.80;;;13.70;99.90;;;;;;5144231;27;20997;-68
2023/05/05 03:07:21;;;;;;;5.27;5.17;;;13.70;99.90;;;;;;5144282;27;20815;-68
2023/05/05 03:09:56;;;;;;;5.37;5.27;;;13.60;99.90;;;;;;5147633;27;20488;-68
2023/05/05 03:12:28;;;;;;;4.87;4.77;;;13.60;99.90;;;;;;5148221;27;20459;-68
2023/05/05 03:14:56;;;;;;;4.40;4.30;;;13.60;99.90;;;;;;5145440;27;20460;-68
2023/05/05 03:17:24;;;;;;;4.80;4.70;;;13.60;99.90;;;;;;5138639;27;20955;-68
2023/05/05 03:19:51;;;;;;;4.47;4.37;;;13.60;99.90;;;;;;5147761;27;20508;-68
2023/05/05 03:22:19;;;;;;;4.60;4.50;;;13.50;99.90;;;;;;5141741;27;20521;-68
2023/05/05 03:24:51;;;;;;;4.83;4.73;;;13.40;99.90;;;;;;5149617;27;20482;-68
2023/05/05 03:27:19;;;;;;;4.80;4.70;;;13.40;99.90;;;;;;5146495;27;20462;-68
2023/05/05 03:29:47;;;;;;;4.40;4.30;;;13.40;99.90;;;;;;5146578;27;20495;-68
2023/05/05 03:32:13;;;;;;;4.43;4.33;;;13.50;99.90;;;;;;5148632;27;20463;-68
2023/05/05 03:34:40;;;;;;;4.40;4.30;;;13.40;99.90;;;;;;5139274;27;20456;-68
2023/05/05 03:37:07;;;;;;;4.30;4.20;;;13.40;99.90;;;;;;5134903;27;20516;-67
2023/05/05 03:39:34;;;;;;;4.07;3.97;;;13.40;99.90;;;;;;5151514;27;20508;-68
2023/05/05 03:42:02;;;;;;;4.23;4.13;;;13.40;99.90;;;;;;5145734;27;20523;-68
2023/05/05 03:44:29;;;;;;;4.67;4.57;;;13.20;99.90;;;;;;5142755;27;20864;-68
2023/05/05 03:46:56;;;;;;;4.93;4.73;;;12.90;99.90;;;;;;5145883;27;20941;-68
2023/05/05 03:49:23;;;;;;;4.20;4.07;;;12.90;99.90;;;;;;5142743;27;20471;-67
2023/05/05 03:51:50;;;;;;;5.40;5.10;;;13.00;99.90;;;;;;5142914;27;20459;-68
2023/05/05 03:54:17;;;;;;;5.03;4.63;;;13.10;99.90;;;;;;5147644;27;20459;-68
2023/05/05 03:56:45;;;;;;;3.93;3.83;;;13.20;99.90;;;;;;5148990;27;20886;-69
2023/05/05 03:59:14;;;;;;;3.77;3.67;;;13.30;99.90;;;;;;5142571;27;20451;-69
2023/05/05 04:01:43;;;;;;;5.00;4.70;;;13.30;99.90;;;;;;5145790;27;20455;-68
2023/05/05 04:04:12;;;;;;;3.20;3.10;;;13.40;99.90;;;;;;5140055;27;20550;-69
2023/05/05 04:06:39;;;;;;;3.23;3.13;;;13.40;99.90;;;;;;5145822;27;20456;-68
2023/05/05 04:09:06;;;;;;;3.47;3.37;;;13.30;99.90;;;;;;5138380;27;20487;-69
2023/05/05 04:11:32;;;;;;;3.23;3.13;;;13.10;99.90;;;;;;5135823;27;21049;-68
2023/05/05 04:14:02;;;;;;;3.37;3.27;;;13.00;99.90;;;;;;5145583;27;20475;-68
2023/05/05 04:16:31;;;;;;;3.53;3.43;;;12.90;99.90;;;;;;5146098;27;20483;-69
2023/05/05 04:18:58;;;;;;;3.77;3.67;;;12.80;99.90;;;;;;5144490;27;20540;-69
2023/05/05 04:21:27;;;;;;;4.10;3.97;;;12.90;99.90;;;;;;5151294;27;20842;-68
2023/05/05 04:23:54;;;;;;;3.40;3.30;;;13.00;99.90;;;;;;5143194;27;20466;-68
2023/05/05 04:26:21;;;;;;;3.23;3.13;;;13.20;99.90;;;;;;5149377;27;20466;-69
2023/05/05 04:28:50;;;;;;;6.63;6.07;;;13.20;99.90;;;;;;5144375;27;20498;-69
2023/05/05 04:31:17;;;;;;;3.00;2.90;;;13.20;99.90;;;;;;5150999;27;20451;-68
2023/05/05 04:33:46;;;;;;;3.07;2.97;;;13.20;99.90;;;;;;5137996;27;20796;-68
2023/05/05 04:36:13;;;;;;;3.20;3.10;;;13.10;99.90;;;;;;5140832;27;20455;-68
2023/05/05 04:38:40;;;;;;;3.53;3.43;;;13.00;99.90;;;;;;5135635;27;20467;-68
2023/05/05 04:41:07;;;;;;;4.20;4.07;;;12.90;99.90;;;;;;5150499;27;20512;-69
2023/05/05 04:43:34;;;;;;;4.23;4.13;;;12.80;99.90;;;;;;5144935;27;20452;-69
2023/05/05 04:46:01;;;;;;;3.50;3.40;;;12.70;99.90;;;;;;5141837;27;20452;-68
2023/05/05 04:48:28;;;;;;;4.37;4.27;;;12.80;99.90;;;;;;5138069;27;20486;-69
2023/05/05 04:50:57;;;;;;;3.20;3.10;;;12.90;99.90;;;;;;5150860;27;20702;-68
2023/05/05 04:53:24;;;;;;;3.30;3.20;;;13.00;99.90;;;;;;5141753;27;20455;-69
2023/05/05 04:55:51;;;;;;;2.90;2.80;;;13.00;99.90;;;;;;5139903;27;20459;-69
2023/05/05 04:58:17;;;;;;;3.50;3.40;;;13.00;99.90;;;;;;5148553;27;20508;-68
2023/05/05 05:00:44;;;;;;;3.53;3.43;;;13.00;99.90;;;;;;5149293;27;20459;-68
2023/05/05 05:03:12;;;;;;;4.43;4.23;;;13.10;99.90;;;;;;5142655;27;20529;-68
2023/05/05 05:05:39;;;;;;;3.73;3.63;;;13.20;99.90;;;;;;5134281;27;20864;-68
2023/05/05 05:08:07;;;;;;;3.80;3.70;;;13.30;99.90;;;;;;5142936;27;20450;-68
2023/05/05 05:10:35;;;;;;;2.70;2.60;;;13.40;99.90;;;;;;5134897;27;20533;-69
2023/05/05 05:13:02;;;;;;;2.80;2.70;;;13.50;99.90;;;;;;5136227;27;20891;-68
2023/05/05 05:15:29;;;;;;;2.70;2.60;;;13.50;99.90;;;;;;5143787;27;20892;-69
2023/05/05 05:17:56;;;;;;;2.40;2.30;;;13.60;99.90;;;;;;5131608;27;20491;-68
2023/05/05 05:20:23;;;;;;;2.57;2.47;;;13.60;99.90;;;;;;5143209;27;21037;-68
2023/05/05 05:22:50;;;;;;;2.40;2.30;;;13.60;99.90;;;;;;5140992;27;20808;-69
2023/05/05 05:25:18;;;;;;;3.40;3.20;;;13.70;99.90;;;;;;5133489;27;20916;-68
2023/05/05 05:27:45;;;;;;;2.70;2.60;;;13.80;99.90;;;;;;5140223;27;20463;-69
2023/05/05 05:30:13;;;;;;;2.70;2.60;;;13.80;99.90;;;;;;5141885;27;20487;-68
2023/05/05 05:32:39;;;;;;;2.50;2.40;;;13.90;99.90;;;;;;5136450;27;20472;-69
2023/05/05 05:35:07;;;;;;;2.50;2.40;;;14.00;99.90;;;;;;5138291;27;20460;-68
2023/05/05 05:37:34;;;;;;;2.80;2.70;;;14.00;99.90;;;;;;5138983;27;20452;-69
2023/05/05 05:40:01;;;;;;;3.00;2.90;;;13.80;99.90;;;;;;5145308;27;20523;-69
2023/05/05 05:42:30;;;;;;;3.20;3.10;;;13.70;99.90;;;;;;5139294;27;20464;-69
2023/05/05 05:44:58;;;;;;;3.90;3.80;;;13.70;99.90;;;;;;5137619;27;20456;-69
2023/05/05 05:47:25;;;;;;;3.27;3.17;;;13.90;99.90;;;;;;5142522;27;20548;-68
2023/05/05 05:49:52;;;;;;;3.27;3.17;;;14.00;99.90;;;;;;5138278;27;20491;-69
2023/05/05 05:52:19;;;;;;;2.53;2.43;;;14.20;99.90;;;;;;5149570;27;20463;-69
2023/05/05 05:54:46;;;;;;;2.80;2.70;;;14.40;99.90;;;;;;5131043;27;20466;-68
2023/05/05 05:57:14;;;;;;;4.13;3.93;;;14.50;99.90;;;;;;5135062;27;20513;-68
2023/05/05 05:59:42;;;;;;;4.87;4.63;;;14.60;99.90;;;;;;5147804;27;20455;-68
2023/05/05 06:02:10;;;;;;;2.60;2.50;;;14.80;99.90;;;;;;5135050;27;20511;-68
2023/05/05 06:04:37;;;;;;;3.93;3.83;;;14.90;99.90;;;;;;5139135;27;20460;-69
2023/05/05 06:07:05;;;;;;;3.73;3.53;;;15.00;99.90;;;;;;5138706;27;20463;-68
2023/05/05 06:09:32;;;;;;;7.60;6.20;;;15.20;99.90;;;;;;5144224;27;20558;-69
2023/05/05 06:12:00;;;;;;;2.70;2.60;;;15.30;99.90;;;;;;5137966;27;21039;-69
2023/05/05 06:14:27;;;;;;;2.90;2.80;;;15.40;99.90;;;;;;5137494;27;20844;-68
2023/05/05 06:16:55;;;;;;;3.20;3.10;;;15.50;99.90;;;;;;5142656;27;20476;-69
2023/05/05 06:19:22;;;;;;;4.60;4.40;;;15.70;99.90;;;;;;5137780;27;20457;-69
2023/05/05 06:21:50;;;;;;;3.60;3.50;;;15.80;99.90;;;;;;5141194;27;20463;-69
2023/05/05 06:24:17;;;;;;;5.33;4.67;;;16.00;99.90;;;;;;5134675;27;20460;-68
2023/05/05 06:26:44;;;;;;;4.40;4.30;;;16.20;99.90;;;;;;5141615;27;20499;-69
2023/05/05 06:29:11;;;;;;;6.20;5.30;;;16.40;99.90;;;;;;5142656;27;20486;-68
2023/05/05 06:31:38;;;;;;;3.87;3.77;;;16.50;99.90;;;;;;5134592;27;20463;-68
2023/05/05 06:34:06;;;;;;;6.93;6.53;;;16.70;99.90;;;;;;5134827;27;20555;-68
2023/05/05 06:36:33;;;;;;;5.63;5.33;;;17.00;99.90;;;;;;5147135;27;20451;-68
2023/05/05 06:39:00;;;;;;;6.40;6.10;;;17.20;99.90;;;;;;5136724;27;20550;-68
2023/05/05 06:41:27;;;;;;;6.20;6.00;;;17.40;99.90;;;;;;5142138;27;20547;-69
2023/05/05 06:43:54;;;;;;;10.70;9.90;;;17.40;99.90;;;;;;5138893;27;20472;-68
2023/05/05 06:46:21;;;;;;;7.67;7.23;;;17.70;99.90;;;;;;5146582;27;20537;-68
2023/05/05 06:48:47;;;;;;;6.10;5.90;;;17.90;99.90;;;;;;5136010;27;20543;-68
2023/05/05 06:51:17;;;;;;;8.10;7.80;;;18.10;99.90;;;;;;5143024;27;20506;-68
2023/05/05 06:53:44;;;;;;;8.70;8.40;;;18.30;99.90;;;;;;5146711;27;20470;-68
2023/05/05 06:56:11;;;;;;;10.40;9.80;;;18.30;99.90;;;;;;5142886;27;20573;-69
2023/05/05 06:58:38;;;;;;;11.23;10.73;;;18.40;99.90;;;;;;5136507;27;20539;-68
2023/05/05 07:01:05;;;;;;;12.47;11.90;;;18.40;99.90;;;;;;5147726;27;20936;-68
2023/05/05 07:03:31;;;;;;;18.33;16.93;;;18.40;99.90;;;;;;5136714;27;20544;-69
2023/05/05 07:05:58;;;;;;;11.10;10.70;;;18.40;99.90;;;;;;5131728;27;20533;-68
2023/05/05 07:08:27;;;;;;;11.47;10.77;;;18.30;99.90;;;;;;5140867;27;20463;-69
2023/05/05 07:10:54;;;;;;;12.77;12.23;;;18.40;99.90;;;;;;5140181;27;21008;-69
2023/05/05 07:13:21;;;;;;;13.97;13.03;;;18.50;99.90;;;;;;5141445;27;20483;-69
2023/05/05 07:15:48;;;;;;;12.87;12.27;;;18.70;99.90;;;;;;5146482;27;20460;-68
2023/05/05 07:18:16;;;;;;;14.93;14.13;;;18.70;99.90;;;;;;5147901;27;20996;-68
2023/05/05 07:20:43;;;;;;;13.07;12.50;;;18.90;99.90;;;;;;5144711;27;20503;-69
2023/05/05 07:23:11;;;;;;;15.00;14.17;;;19.00;99.90;;;;;;5137912;27;20464;-68
2023/05/05 07:25:39;;;;;;;15.00;14.00;;;19.10;99.90;;;;;;5141372;27;20456;-68
2023/05/05 07:28:06;;;;;;;12.83;12.13;;;19.00;99.90;;;;;;5148479;27;20482;-69
2023/05/05 07:30:33;;;;;;;13.00;12.20;;;19.10;99.90;;;;;;5143450;27;20478;-69
2023/05/05 07:33:00;;;;;;;14.00;13.37;;;19.10;99.90;;;;;;5137780;27;20536;-69
2023/05/05 07:35:27;;;;;;;15.70;14.77;;;19.10;99.90;;;;;;5139302;27;20953;-69
2023/05/05 07:37:55;;;;;;;13.47;12.87;;;19.30;99.90;;;;;;5137432;27;20489;-68
2023/05/05 07:40:22;;;;;;;14.57;13.77;;;19.40;99.90;;;;;;5145847;27;20459;-69
2023/05/05 07:42:51;;;;;;;16.73;15.47;;;19.50;99.90;;;;;;5136350;27;20464;-68
2023/05/05 07:45:18;;;;;;;17.67;16.50;;;19.60;99.90;;;;;;5147925;27;20504;-69
2023/05/05 07:47:44;;;;;;;12.73;12.23;;;19.60;99.90;;;;;;5141482;27;20468;-69
2023/05/05 07:50:12;;;;;;;14.10;13.20;;;19.70;99.90;;;;;;5136679;27;20496;-69
2023/05/05 07:52:39;;;;;;;14.40;13.60;;;19.70;99.90;;;;;;5137709;27;20957;-69
2023/05/05 07:55:07;;;;;;;15.20;14.40;;;19.70;99.90;;;;;;5144881;27;20545;-69
2023/05/05 07:57:34;;;;;;;14.90;14.00;;;19.60;99.90;;;;;;5141152;27;20455;-69
2023/05/05 08:00:03;;;;;;;15.73;14.93;;;19.60;99.90;;;;;;5144415;27;20455;-68
2023/05/05 08:02:32;;;;;;;14.33;13.33;;;19.80;99.90;;;;;;5155498;27;20456;-69
2023/05/05 08:04:58;;;;;;;13.80;13.20;;;19.90;99.90;;;;;;5137387;27;20496;-69
2023/05/05 08:07:25;;;;;;;13.97;13.27;;;20.00;99.90;;;;;;5144179;27;22343;-69
2023/05/05 08:09:52;;;;;;;13.00;12.40;;;20.10;99.90;;;;;;5138104;27;20483;-69
2023/05/05 08:12:19;;;;;;;13.70;13.10;;;20.10;99.90;;;;;;5143032;27;20463;-69
2023/05/05 08:14:46;;;;;;;12.90;12.30;;;20.10;99.90;;;;;;5137690;27;20568;-68
2023/05/05 08:17:15;;;;;;;13.30;12.70;;;19.90;99.90;;;;;;5140495;27;20471;-68
2023/05/05 08:19:42;;;;;;;16.57;14.23;;;19.80;99.90;;;;;;5138119;27;20461;-69
2023/05/05 08:22:09;;;;;;;15.00;14.30;;;19.70;99.90;;;;;;5140827;27;20477;-69
2023/05/05 08:24:36;;;;;;;14.80;14.00;;;19.90;99.90;;;;;;5139670;27;20480;-69
2023/05/05 08:27:03;;;;;;;15.30;14.40;;;20.20;99.90;;;;;;5145117;27;20467;-70
2023/05/05 08:29:30;;;;;;;14.60;13.90;;;20.20;99.90;;;;;;5135955;27;20482;-69
2023/05/05 08:31:57;;;;;;;16.53;15.50;;;20.60;99.90;;;;;;5134374;27;20459;-69
2023/05/05 08:34:25;;;;;;;14.70;14.00;;;21.10;99.90;;;;;;5134137;27;20862;-69
2023/05/05 08:36:52;;;;;;;13.73;13.13;;;21.40;99.90;;;;;;5139455;27;20446;-69
2023/05/05 08:39:21;;;;;;;13.90;13.30;;;21.40;99.90;;;;;;5134282;27;20455;-69
2023/05/05 08:41:48;;;;;;;14.77;13.93;;;21.50;99.90;;;;;;5142296;27;20466;-69
2023/05/05 08:44:16;;;;;;;15.60;14.80;;;21.60;99.90;;;;;;5136803;27;20460;-69
2023/05/05 08:46:43;;;;;;;16.43;15.00;;;21.70;99.90;;;;;;5144093;27;20459;-69
2023/05/05 08:49:15;;;;;;;14.57;13.97;;;22.20;99.90;;;;;;5144548;27;20474;-69
2023/05/05 08:51:46;;;;;;;14.60;14.00;;;22.70;99.90;;;;;;5140310;27;20510;-70
2023/05/05 08:54:17;;;;;;;15.40;14.50;;;23.40;99.90;;;;;;5139027;27;20459;-69
2023/05/05 08:56:50;;;;;;;14.97;14.27;;;23.50;99.90;;;;;;5140793;27;20504;-69
2023/05/05 08:59:18;;;;;;;17.10;15.90;;;24.10;99.90;;;;;;5144985;27;20463;-66
2023/05/05 09:01:46;;;;;;;14.60;13.90;;;24.10;99.90;;;;;;5135047;27;20487;-67
2023/05/05 09:04:13;;;;;;;15.37;14.63;;;24.10;99.90;;;;;;5140750;27;20973;-67
2023/05/05 09:06:40;;;;;;;15.30;14.60;;;23.50;99.90;;;;;;5139920;27;20500;-67
2023/05/05 09:09:09;;;;;;;14.43;13.73;;;23.60;99.90;;;;;;5144005;27;20811;-68
2023/05/05 09:11:37;;;;;;;14.70;14.10;;;23.80;99.90;;;;;;5133782;27;20531;-68
2023/05/05 09:14:06;;;;;;;16.23;15.43;;;24.20;99.90;;;;;;5139009;27;20475;-68
2023/05/05 09:16:34;;;;;;;15.03;14.43;;;24.90;99.90;;;;;;5137784;27;21052;-68
2023/05/05 09:19:02;;;;;;;14.80;14.20;;;25.40;99.90;;;;;;5145931;27;20818;-68
2023/05/05 09:21:29;;;;;;;14.77;14.17;;;25.70;99.90;;;;;;5146724;27;20455;-68
2023/05/05 09:24:11;;;;;;;15.47;14.60;;;25.90;99.90;;;;;;5135739;27;20802;-68
2023/05/05 09:26:39;;;;;;;14.90;14.23;;;25.60;99.90;;;;;;5145176;27;20541;-68
2023/05/05 09:29:06;;;;;;;15.90;15.20;;;25.30;99.90;;;;;;5136477;27;20460;-68
2023/05/05 09:31:34;;;;;;;15.43;14.43;;;24.80;99.90;;;;;;5142894;27;20551;-68
2023/05/05 09:34:03;;;;;;;14.13;13.60;;;24.60;99.90;;;;;;5137287;27;20454;-68
2023/05/05 09:36:43;;;;;;;14.67;14.07;;;24.70;99.90;;;;;;5143203;27;20780;-68
2023/05/05 09:39:12;;;;;;;13.70;13.20;;;24.50;99.90;;;;;;5147201;27;20984;-68
2023/05/05 09:41:41;;;;;;;15.30;14.60;;;25.10;99.90;;;;;;5132126;27;20513;-68
2023/05/05 09:44:08;;;;;;;15.53;14.63;;;25.70;99.90;;;;;;5134985;27;21034;-68
2023/05/05 09:46:35;;;;;;;14.53;13.93;;;26.00;99.90;;;;;;5134966;27;20456;-68
2023/05/05 09:49:12;;;;;;;14.07;13.53;;;26.80;99.90;;;;;;5143918;27;20452;-68
2023/05/05 09:51:40;;;;;;;13.80;13.30;;;27.20;99.90;;;;;;5146427;27;20882;-69
2023/05/05 09:54:06;;;;;;;14.53;13.93;;;27.30;99.90;;;;;;5137842;27;20462;-68
2023/05/05 09:56:39;;;;;;;13.97;13.47;;;27.80;99.90;;;;;;5130918;27;20962;-69
2023/05/05 09:59:10;;;;;;;14.70;14.10;;;28.00;99.90;;;;;;5138563;27;20551;-68
2023/05/05 10:01:37;;;;;;;14.77;14.03;;;27.60;99.90;;;;;;5141045;27;20865;-68
2023/05/05 10:04:05;;;;;;;15.33;14.63;;;27.40;99.90;;;;;;5140693;27;20837;-68
2023/05/05 10:06:45;;;;;;;13.20;12.70;;;28.20;99.90;;;;;;5146781;27;20444;-68
2023/05/05 10:09:12;;;;;;;14.57;13.97;;;27.80;99.90;;;;;;5140735;27;20960;-68
2023/05/05 10:11:42;;;;;;;14.87;14.27;;;27.30;99.90;;;;;;5144105;27;20490;-68
2023/05/05 10:14:12;;;;;;;14.53;13.87;;;26.70;99.90;;;;;;5136537;27;20480;-68
2023/05/05 10:16:45;;;;;;;13.50;13.00;;;26.60;99.90;;;;;;5151058;27;20474;-68
2023/05/05 10:19:15;;;;;;;14.93;14.33;;;26.20;99.90;;;;;;5141234;27;20504;-68
2023/05/05 10:21:47;;;;;;;14.80;14.20;;;25.30;99.90;;;;;;5150078;27;20742;-69
2023/05/05 10:24:18;;;;;;;14.57;13.97;;;25.70;99.90;;;;;;5140489;27;20993;-68
2023/05/05 10:26:48;;;;;;;14.90;14.30;;;25.80;99.90;;;;;;5139084;27;20528;-68
2023/05/05 10:29:22;;;;;;;14.90;14.30;;;25.40;99.90;;;;;;5144255;27;20448;-68
2023/05/05 10:31:54;;;;;;;15.27;14.63;;;25.00;99.90;;;;;;5143573;27;20985;-69
2023/05/05 10:34:26;;;;;;;14.50;13.90;;;24.30;99.90;;;;;;5145652;27;20889;-69
2023/05/05 10:36:53;;;;;;;16.50;15.70;;;24.30;99.90;;;;;;5139767;27;20557;-69
2023/05/05 10:39:22;;;;;;;14.10;13.60;;;24.20;99.90;;;;;;5146244;27;20458;-69
2023/05/05 10:41:52;;;;;;;14.40;13.70;;;24.00;99.90;;;;;;5142340;27;20459;-69
2023/05/05 10:44:20;;;;;;;13.83;13.33;;;23.60;99.90;;;;;;5138363;27;20452;-69
2023/05/05 10:46:48;;;;;;;15.00;14.30;;;23.60;99.90;;;;;;5146500;27;20459;-69
2023/05/05 10:49:28;;;;;;;14.20;13.60;;;23.30;99.90;;;;;;5143417;27;20451;-69
2023/05/05 10:52:02;;;;;;;14.60;14.00;;;23.60;99.90;;;;;;5144441;27;20543;-69
2023/05/05 10:54:36;;;;;;;14.03;13.53;;;23.30;99.90;;;;;;5140803;27;20471;-69
2023/05/05 10:57:07;;;;;;;14.33;13.73;;;23.20;99.90;;;;;;5140296;27;20598;-69
2023/05/05 10:59:44;;;;;;;14.40;13.80;;;23.10;99.90;;;;;;5145209;27;20550;-69
2023/05/05 11:02:24;;;;;;;13.87;13.30;;;22.80;99.90;;;;;;5135105;27;20911;-69
2023/05/05 11:05:09;;;;;;;14.27;13.67;;;22.50;99.90;;;;;;5141747;27;20823;-69
2023/05/05 11:07:36;;;;;;;14.80;14.20;;;22.00;99.90;;;;;;5138200;27;20489;-69
2023/05/05 11:10:05;;;;;;;15.33;14.53;;;21.80;99.90;;;;;;5143156;27;20451;-68
2023/05/05 11:12:53;;;;;;;14.60;14.00;;;21.50;99.90;;;;;;5141728;27;20876;-68
2023/05/05 11:15:36;;;;;;;15.33;14.47;;;21.40;99.90;;;;;;5138879;27;20460;-68
2023/05/05 11:18:04;;;;;;;14.30;13.50;;;21.20;99.90;;;;;;5137717;27;20807;-68
2023/05/05 11:21:02;;;;;;;14.83;14.13;;;20.90;99.90;;;;;;5143059;27;20960;-68
2023/05/05 11:23:30;;;;;;;14.47;13.87;;;20.50;99.90;;;;;;5149853;27;20874;-68
2023/05/05 11:25:58;;;;;;;14.20;13.50;;;20.30;99.90;;;;;;5139316;27;20576;-68
2023/05/05 11:28:29;;;;;;;14.67;13.60;;;20.30;99.90;;;;;;5142469;27;20668;-69
2023/05/05 11:31:15;;;;;;;14.70;14.00;;;20.30;99.90;;;;;;5136361;27;20512;-68
2023/05/05 11:33:44;;;;;;;13.00;12.50;;;20.20;99.90;;;;;;5151183;27;20451;-68
2023/05/05 11:36:12;;;;;;;13.73;13.03;;;20.10;99.90;;;;;;5140925;27;20452;-69
2023/05/05 11:39:13;;;;;;;13.87;13.27;;;20.30;99.90;;;;;;5145465;27;20462;-68
2023/05/05 11:42:18;;;;;;;14.20;13.60;;;20.50;99.90;;;;;;5031087;28;21026;-68
2023/05/05 11:44:46;;;;;;;13.83;13.23;;;20.90;99.90;;;;;;5122216;27;20530;-68
2023/05/05 11:47:30;;;;;;;14.23;13.60;;;21.00;99.90;;;;;;5141000;27;20464;-68
2023/05/05 11:49:58;;;;;;;13.70;13.13;;;21.20;99.90;;;;;;5146170;27;20843;-68
2023/05/05 11:52:27;;;;;;;14.60;14.00;;;21.60;99.90;;;;;;5143928;27;20480;-68
2023/05/05 11:55:00;;;;;;;13.90;13.30;;;22.00;99.90;;;;;;5146900;27;20455;-69
2023/05/05 11:57:30;;;;;;;16.10;15.00;;;22.10;99.90;;;;;;5133812;27;20969;-69
2023/05/05 12:00:01;;;;;;;13.70;13.20;;;22.20;99.90;;;;;;5146621;27;20463;-69
2023/05/05 12:02:30;;;;;;;14.10;13.50;;;22.60;99.90;;;;;;5145504;27;20456;-68
2023/05/05 12:04:59;;;;;;;13.80;13.30;;;22.90;99.90;;;;;;5143115;27;20987;-68
2023/05/05 12:07:27;;;;;;;13.80;13.20;;;23.50;99.90;;;;;;5141360;27;21030;-68
2023/05/05 12:09:54;;;;;;;13.87;13.37;;;23.60;99.90;;;;;;5136242;27;20850;-68
2023/05/05 12:12:32;;;;;;;15.70;14.33;;;23.80;99.90;;;;;;5144266;27;20961;-67
2023/05/05 12:15:01;;;;;;;14.90;14.30;;;23.80;99.90;;;;;;5149095;27;20465;-67
2023/05/05 12:17:41;;;;;;;15.30;14.70;;;23.70;99.90;;;;;;5143734;27;20486;-68
2023/05/05 12:20:09;;;;;;;13.10;12.50;;;23.90;99.90;;;;;;5143997;27;20460;-68
2023/05/05 12:22:36;;;;;;;13.63;13.10;;;23.90;99.90;;;;;;5140980;27;20448;-68
2023/05/05 12:25:05;;;;;;;14.57;13.90;;;23.80;99.90;;;;;;5143794;27;20800;-68
2023/05/05 12:27:32;;;;;;;13.80;13.20;;;23.50;99.90;;;;;;5146975;27;20463;-68
2023/05/05 12:30:13;;;;;;;14.17;13.57;;;22.60;99.90;;;;;;5144102;27;20468;-67
2023/05/05 12:32:41;;;;;;;13.20;12.70;;;22.80;99.90;;;;;;5141096;27;20902;-68
2023/05/05 12:35:09;;;;;;;15.00;14.20;;;23.30;99.90;;;;;;5141541;27;20460;-68
2023/05/05 12:37:36;;;;;;;14.43;13.77;;;23.40;99.90;;;;;;5131241;27;20821;-67
2023/05/05 12:40:04;;;;;;;13.20;12.70;;;23.60;99.90;;;;;;5144945;27;20460;-68
2023/05/05 12:42:32;;;;;;;15.00;14.00;;;23.30;99.90;;;;;;5139983;27;20986;-69
2023/05/05 12:44:59;;;;;;;13.77;13.10;;;23.20;99.90;;;;;;5137879;27;20487;-69
2023/05/05 12:47:35;;;;;;;13.63;13.03;;;23.30;99.90;;;;;;5137706;27;20498;-70